createdAt,value
2019-04-01T00:00:44.751Z,82.80
2019-04-01T00:03:17.754Z,82.10
2019-04-01T00:05:50.895Z,82.40
2019-04-01T00:08:24.001Z,83.10
2019-04-01T00:10:57.031Z,83.40
2019-04-01T00:13:30.141Z,82.90
2019-04-01T00:16:03.401Z,83.00
2019-04-01T00:18:36.521Z,84.00
2019-04-01T00:21:09.732Z,83.50
2019-04-01T00:23:42.741Z,84.10
2019-04-01T00:26:15.670Z,84.00
2019-04-01T00:28:48.652Z,84.00
2019-04-01T00:31:21.462Z,83.50
2019-04-01T00:33:54.571Z,83.30
2019-04-01T00:36:27.567Z,83.90
2019-04-01T00:39:00.551Z,83.50
2019-04-01T00:41:35.212Z,84.00
2019-04-01T00:44:09.605Z,84.30
2019-04-01T00:46:42.467Z,85.40
2019-04-01T00:49:15.361Z,84.60
2019-04-01T00:51:48.261Z,84.20
2019-04-01T00:54:21.151Z,83.90
2019-04-01T00:56:54.251Z,83.50
2019-04-01T00:59:27.448Z,84.10
2019-04-01T01:02:00.227Z,86.30
2019-04-01T01:04:33.341Z,87.90
2019-04-01T01:07:06.176Z,88.30
2019-04-01T01:09:39.111Z,87.60
2019-04-01T01:12:12.137Z,86.70
2019-04-01T01:14:45.192Z,85.70
2019-04-01T01:17:18.111Z,85.50
2019-04-01T01:19:51.272Z,85.90
2019-04-01T01:22:24.322Z,84.80
2019-04-01T01:24:57.224Z,86.00
2019-04-01T01:27:30.357Z,85.60
2019-04-01T01:30:04.118Z,84.00
2019-04-01T01:32:37.074Z,83.80
2019-04-01T01:35:10.191Z,84.30
2019-04-01T01:37:43.181Z,83.90
2019-04-01T01:40:16.335Z,83.90
2019-04-01T01:42:49.501Z,83.90
2019-04-01T01:45:22.531Z,84.40
2019-04-01T01:47:55.897Z,84.30
2019-04-01T01:50:28.951Z,84.70
2019-04-01T01:53:02.042Z,84.50
2019-04-01T01:55:35.131Z,85.20
2019-04-01T01:58:07.828Z,85.90
2019-04-01T02:00:41.871Z,86.40
2019-04-01T02:03:15.131Z,85.20
2019-04-01T02:05:48.331Z,85.70
2019-04-01T02:08:21.531Z,85.10
2019-04-01T02:10:54.552Z,84.70
2019-04-01T02:13:27.562Z,85.50
2019-04-01T02:16:00.631Z,84.80
2019-04-01T02:18:33.772Z,84.70
2019-04-01T02:21:06.404Z,86.00
2019-04-01T02:23:39.551Z,85.50
2019-04-01T02:26:12.561Z,84.90
2019-04-01T02:28:45.610Z,86.10
2019-04-01T02:31:18.752Z,86.40
2019-04-01T02:33:51.913Z,85.80
2019-04-01T02:36:24.691Z,85.80
2019-04-01T02:38:57.816Z,85.60
2019-04-01T02:41:30.895Z,85.20
2019-04-01T02:44:04.376Z,84.60
2019-04-01T02:46:37.351Z,85.30
2019-04-01T02:49:10.484Z,86.60
2019-04-01T02:51:43.734Z,86.40
2019-04-01T02:54:16.664Z,86.10
2019-04-01T02:56:49.914Z,86.70
2019-04-01T02:59:22.873Z,86.20
2019-04-01T03:01:56.053Z,85.60
2019-04-01T03:04:29.163Z,86.20
2019-04-01T03:07:02.244Z,87.00
2019-04-01T03:09:35.211Z,87.40
2019-04-01T03:12:07.877Z,86.60
2019-04-01T03:14:41.041Z,86.90
2019-04-01T03:17:13.902Z,86.90
2019-04-01T03:19:46.843Z,85.80
2019-04-01T03:22:19.702Z,85.60
2019-04-01T03:24:52.801Z,85.80
2019-04-01T03:27:25.676Z,86.10
2019-04-01T03:29:58.773Z,85.60
2019-04-01T03:32:31.950Z,85.30
2019-04-01T03:35:05.418Z,85.60
2019-04-01T03:37:38.682Z,85.60
2019-04-01T03:40:11.932Z,85.90
2019-04-01T03:42:45.021Z,86.10
2019-04-01T03:45:18.093Z,85.10
2019-04-01T03:47:51.243Z,84.60
2019-04-01T03:50:24.394Z,84.60
2019-04-01T03:52:57.222Z,84.50
2019-04-01T03:55:30.251Z,85.60
2019-04-01T03:58:03.800Z,84.90
2019-04-01T04:00:36.662Z,84.00
2019-04-01T04:03:09.501Z,85.10
2019-04-01T04:05:42.362Z,85.80
2019-04-01T04:08:15.513Z,85.70
2019-04-01T04:10:48.892Z,85.90
2019-04-01T04:13:21.675Z,87.00
2019-04-01T04:15:54.876Z,85.60
2019-04-01T04:18:27.862Z,84.60
2019-04-01T04:21:00.952Z,86.40
2019-04-01T04:23:33.903Z,85.40
2019-04-01T04:26:06.706Z,85.00
2019-04-01T04:28:39.881Z,85.40
2019-04-01T04:31:13.067Z,84.70
2019-04-01T04:33:46.021Z,85.00
2019-04-01T04:36:19.023Z,85.70
2019-04-01T04:38:51.982Z,87.60
2019-04-01T04:41:25.042Z,86.80
2019-04-01T04:43:58.211Z,85.50
2019-04-01T04:46:31.241Z,84.90
2019-04-01T04:49:04.950Z,84.90
2019-04-01T04:51:38.135Z,85.30
2019-04-01T04:54:11.081Z,84.40
2019-04-01T04:56:44.081Z,83.80
2019-04-01T04:59:17.431Z,84.30
2019-04-01T05:01:50.441Z,85.00
2019-04-01T05:04:23.617Z,85.20
2019-04-01T05:06:56.802Z,85.50
2019-04-01T05:09:30.080Z,86.00
2019-04-01T05:12:03.393Z,85.30
2019-04-01T05:14:36.291Z,84.80
2019-04-01T05:17:09.272Z,84.60
2019-04-01T05:19:42.440Z,87.30
2019-04-01T05:22:15.443Z,86.60
2019-04-01T05:24:48.335Z,87.00
2019-04-01T05:27:21.401Z,86.50
2019-04-01T05:29:54.422Z,86.50
2019-04-01T05:32:27.694Z,84.50
2019-04-01T05:35:00.751Z,85.10
2019-04-01T05:37:34.061Z,85.50
2019-04-01T05:40:06.773Z,84.30
2019-04-01T05:42:40.041Z,85.20
2019-04-01T05:45:13.101Z,86.20
2019-04-01T05:47:53.501Z,83.60
2019-04-01T05:50:26.443Z,83.60
2019-04-01T05:52:59.680Z,84.20
2019-04-01T05:55:32.622Z,84.00
2019-04-01T05:58:06.175Z,83.80
2019-04-01T06:00:40.573Z,82.00
2019-04-01T06:03:13.421Z,81.30
2019-04-01T06:05:46.671Z,81.40
2019-04-01T06:08:19.621Z,81.50
2019-04-01T06:10:52.580Z,81.10
2019-04-01T06:13:25.620Z,84.30
2019-04-01T06:15:58.591Z,82.40
2019-04-01T06:18:31.682Z,83.50
2019-04-01T06:21:05.662Z,82.90
2019-04-01T06:23:38.661Z,82.70
2019-04-01T06:26:11.473Z,83.80
2019-04-01T06:28:45.380Z,83.00
2019-04-01T06:31:18.271Z,82.80
2019-04-01T06:33:51.271Z,84.90
2019-04-01T06:36:24.083Z,82.40
2019-04-01T06:38:56.971Z,81.80
2019-04-01T06:41:29.870Z,82.60
2019-04-01T06:44:03.753Z,81.00
2019-04-01T06:46:36.670Z,81.90
2019-04-01T06:49:09.961Z,82.50
2019-04-01T06:51:42.940Z,83.40
2019-04-01T06:54:15.810Z,84.70
2019-04-01T06:56:48.801Z,84.00
2019-04-01T06:59:21.841Z,85.20
2019-04-01T07:01:54.861Z,84.90
2019-04-01T07:04:27.791Z,85.10
2019-04-01T07:07:00.771Z,82.00
2019-04-01T07:09:33.921Z,82.50
2019-04-01T07:12:06.586Z,81.70
2019-04-01T07:14:39.583Z,82.30
2019-04-01T07:17:12.442Z,82.40
2019-04-01T07:19:45.310Z,82.40
2019-04-01T07:22:18.120Z,80.40
2019-04-01T07:24:51.204Z,80.10
2019-04-01T07:27:23.972Z,80.50
2019-04-01T07:29:56.981Z,81.60
2019-04-01T07:32:29.825Z,79.30
2019-04-01T07:35:03.425Z,78.20
2019-04-01T07:37:36.451Z,79.00
2019-04-01T07:40:09.521Z,78.00
2019-04-01T07:42:42.351Z,78.90
2019-04-01T07:45:15.374Z,78.70
2019-04-01T07:47:51.512Z,75.70
2019-04-01T07:50:22.781Z,79.30
2019-04-01T07:52:55.941Z,80.20
2019-04-01T07:55:29.468Z,78.90
2019-04-01T07:58:04.246Z,80.60
2019-04-01T08:00:37.293Z,81.20
2019-04-01T08:03:10.101Z,79.70
2019-04-01T08:05:43.011Z,79.60
2019-04-01T08:08:15.862Z,80.00
2019-04-01T08:10:48.792Z,79.20
2019-04-01T08:13:21.622Z,80.80
2019-04-01T08:15:54.511Z,80.10
2019-04-01T08:18:27.472Z,87.80
2019-04-01T08:21:00.571Z,89.00
2019-04-01T08:23:33.460Z,88.60
2019-04-01T08:26:06.141Z,88.60
2019-04-01T08:28:39.121Z,86.30
2019-04-01T08:31:13.466Z,84.10
2019-04-01T08:33:50.032Z,86.70
2019-04-01T08:36:21.270Z,88.70
2019-04-01T08:38:55.551Z,85.10
2019-04-01T08:41:28.641Z,87.30
2019-04-01T08:44:03.263Z,86.70
2019-04-01T08:46:36.371Z,87.00
2019-04-01T08:49:09.141Z,86.30
2019-04-01T08:51:42.481Z,83.60
2019-04-01T08:54:15.441Z,84.70
2019-04-01T08:56:48.411Z,81.60
2019-04-01T08:59:21.321Z,79.60
2019-04-01T09:01:54.301Z,80.50
2019-04-01T09:04:27.121Z,77.70
2019-04-01T09:07:00.049Z,76.70
2019-04-01T09:09:32.901Z,76.00
2019-04-01T09:12:05.870Z,75.30
2019-04-01T09:14:38.877Z,76.50
2019-04-01T09:17:11.680Z,76.30
2019-04-01T09:19:44.671Z,76.10
2019-04-01T09:22:17.551Z,72.50
2019-04-01T09:24:50.401Z,70.40
2019-04-01T09:27:23.281Z,67.40
2019-04-01T09:29:56.252Z,67.40
2019-04-01T09:32:29.266Z,67.50
2019-04-01T09:35:02.193Z,67.30
2019-04-01T09:37:35.026Z,65.20
2019-04-01T09:40:07.754Z,65.90
2019-04-01T09:42:40.801Z,64.70
2019-04-01T09:45:13.643Z,64.20
2019-04-01T09:47:49.134Z,63.40
2019-04-01T09:50:22.042Z,62.90
2019-04-01T09:52:55.026Z,64.70
2019-04-01T09:55:28.012Z,65.00
2019-04-01T09:58:01.012Z,64.00
2019-04-01T10:00:33.872Z,66.20
2019-04-01T10:03:06.727Z,64.20
2019-04-01T10:05:39.623Z,62.70
2019-04-01T10:08:12.451Z,65.80
2019-04-01T10:10:45.450Z,63.20
2019-04-01T10:13:18.401Z,61.80
2019-04-01T10:15:51.371Z,62.40
2019-04-01T10:18:24.472Z,61.30
2019-04-01T10:20:57.441Z,60.00
2019-04-01T10:23:30.331Z,62.00
2019-04-01T10:26:03.907Z,57.30
2019-04-01T10:28:36.871Z,58.40
2019-04-01T10:42:07.377Z,59.70
2019-04-01T10:44:40.651Z,59.40
2019-04-01T10:47:13.373Z,57.30
2019-04-01T10:49:46.361Z,56.20
2019-04-01T10:52:19.492Z,56.20
2019-04-01T10:54:52.715Z,55.30
2019-04-01T10:57:25.781Z,57.10
2019-04-01T10:59:59.201Z,57.30
2019-04-01T11:02:32.388Z,56.50
2019-04-01T11:05:05.726Z,57.40
2019-04-01T11:07:38.691Z,57.90
2019-04-01T11:10:11.996Z,56.70
2019-04-01T11:12:45.471Z,59.30
2019-04-01T11:15:20.024Z,62.90
2019-04-01T11:17:53.713Z,63.30
2019-04-01T11:20:26.620Z,64.60
2019-04-01T11:23:02.526Z,66.00
2019-04-01T11:25:34.641Z,59.20
2019-04-01T11:28:07.591Z,58.50
2019-04-01T11:30:40.609Z,60.30
2019-04-01T11:33:13.837Z,58.40
2019-04-01T11:35:46.923Z,58.50
2019-04-01T11:38:20.013Z,55.50
2019-04-01T11:40:53.326Z,60.80
2019-04-01T11:43:26.434Z,59.30
2019-04-01T11:45:59.720Z,52.80
2019-04-01T11:48:32.658Z,59.20
2019-04-01T11:51:05.834Z,54.60
2019-04-01T11:53:38.990Z,54.50
2019-04-01T11:56:11.920Z,53.00
2019-04-01T11:58:44.890Z,53.00
2019-04-01T12:01:17.861Z,57.50
2019-04-01T12:03:50.671Z,54.70
2019-04-01T12:06:23.981Z,55.90
2019-04-01T12:08:56.951Z,55.30
2019-04-01T12:11:29.894Z,55.70
2019-04-01T12:14:05.116Z,54.30
2019-04-01T12:16:37.921Z,53.10
2019-04-01T12:19:10.723Z,50.70
2019-04-01T12:21:43.635Z,51.70
2019-04-01T12:24:16.550Z,52.10
2019-04-01T12:26:49.550Z,53.50
2019-04-01T12:29:22.371Z,52.50
2019-04-01T12:31:55.371Z,53.30
2019-04-01T12:34:28.317Z,53.60
2019-04-01T12:37:01.221Z,54.30
2019-04-01T12:39:34.210Z,53.90
2019-04-01T12:42:06.987Z,56.00
2019-04-01T12:44:41.354Z,57.10
2019-04-01T12:47:14.692Z,57.20
2019-04-01T12:49:47.691Z,58.60
2019-04-01T12:52:20.510Z,59.10
2019-04-01T12:54:53.731Z,58.50
2019-04-01T12:57:26.741Z,57.40
2019-04-01T12:59:59.850Z,58.60
2019-04-01T13:02:32.921Z,58.60
2019-04-01T13:05:05.918Z,54.80
2019-04-01T13:07:39.125Z,56.50
2019-04-01T13:10:11.970Z,57.70
2019-04-01T13:12:46.333Z,57.40
2019-04-01T13:15:19.661Z,58.60
2019-04-01T13:17:52.931Z,60.20
2019-04-01T13:20:37.183Z,57.30
2019-04-01T13:23:00.834Z,58.30
2019-04-01T13:25:34.198Z,58.30
2019-04-01T13:28:07.097Z,58.70
2019-04-01T13:30:40.000Z,59.60
2019-04-01T13:33:13.021Z,57.90
2019-04-01T13:35:46.101Z,57.90
2019-04-01T13:38:18.911Z,57.60
2019-04-01T13:40:51.825Z,59.80
2019-04-01T13:43:24.848Z,57.90
2019-04-01T13:45:57.829Z,58.20
2019-04-01T13:48:30.791Z,59.10
2019-04-01T13:51:04.418Z,60.00
2019-04-01T13:53:37.471Z,61.70
2019-04-01T13:56:12.271Z,61.50
2019-04-01T13:58:45.130Z,59.40
2019-04-01T14:01:18.032Z,59.60
2019-04-01T14:03:51.011Z,59.00
2019-04-01T14:06:23.831Z,57.20
2019-04-01T14:09:00.306Z,58.60
2019-04-01T14:11:31.490Z,57.50
2019-04-01T14:14:05.323Z,58.00
2019-04-01T14:16:41.371Z,58.10
2019-04-01T14:19:13.341Z,58.00
2019-04-01T14:21:46.391Z,55.90
2019-04-01T14:24:19.557Z,57.20
2019-04-01T14:26:56.390Z,60.40
2019-04-01T14:29:27.301Z,60.70
2019-04-01T14:32:00.440Z,58.30
2019-04-01T14:34:33.311Z,58.80
2019-04-01T14:37:09.673Z,58.20
2019-04-01T14:39:40.941Z,59.10
2019-04-01T14:42:14.040Z,58.70
2019-04-01T14:44:47.410Z,58.50
2019-04-01T14:47:20.471Z,58.20
2019-04-01T14:49:53.801Z,57.40
2019-04-01T14:52:32.573Z,57.40
2019-04-01T14:55:02.407Z,55.70
2019-04-01T14:57:35.665Z,56.00
2019-04-01T15:00:08.362Z,57.30
2019-04-01T15:02:41.330Z,57.20
2019-04-01T15:05:14.261Z,58.50
2019-04-01T15:07:47.375Z,59.00
2019-04-01T15:10:20.214Z,59.10
2019-04-01T15:13:04.437Z,59.50
2019-04-01T15:15:27.723Z,59.70
2019-04-01T15:18:00.883Z,55.50
2019-04-01T15:20:33.902Z,57.60
2019-04-01T15:23:06.601Z,56.90
2019-04-01T15:25:39.590Z,56.10
2019-04-01T15:28:12.470Z,56.60
2019-04-01T15:30:45.392Z,57.90
2019-04-01T15:33:18.270Z,57.70
2019-04-01T15:35:51.324Z,56.50
2019-04-01T15:38:24.231Z,57.10
2019-04-01T15:40:58.386Z,57.30
2019-04-01T15:43:31.681Z,57.80
2019-04-01T15:46:06.319Z,59.00
2019-04-01T15:48:39.622Z,57.30
2019-04-01T15:51:12.780Z,58.30
2019-04-01T15:53:45.720Z,58.20
2019-04-01T15:56:18.660Z,59.70
2019-04-01T15:58:51.602Z,60.40
2019-04-01T16:01:24.589Z,62.30
2019-04-01T16:03:57.651Z,59.80
2019-04-01T16:06:32.076Z,59.30
2019-04-01T16:09:06.279Z,59.80
2019-04-01T16:11:39.352Z,59.90
2019-04-01T16:14:12.611Z,62.30
2019-04-01T16:16:45.691Z,61.20
2019-04-01T16:19:18.831Z,62.10
2019-04-01T16:21:52.184Z,63.20
2019-04-01T16:24:26.232Z,66.30
2019-04-01T16:26:59.291Z,66.40
2019-04-01T16:29:32.430Z,67.00
2019-04-01T16:32:06.094Z,66.40
2019-04-01T16:34:41.979Z,68.10
2019-04-01T16:37:13.611Z,64.10
2019-04-01T16:39:46.731Z,66.90
2019-04-01T16:42:19.858Z,66.30
2019-04-01T16:44:54.190Z,66.00
2019-04-01T16:47:27.602Z,67.50
2019-04-01T16:50:01.280Z,68.90
2019-04-01T16:52:34.271Z,68.90
2019-04-01T16:55:07.221Z,66.90
2019-04-01T16:57:40.219Z,66.80
2019-04-01T17:00:14.814Z,67.60
2019-04-01T17:02:48.061Z,67.90
2019-04-01T17:05:21.169Z,68.90
2019-04-01T17:07:54.743Z,67.50
2019-04-01T17:10:28.181Z,68.30
2019-04-01T17:13:01.585Z,69.80
2019-04-01T17:15:35.250Z,70.10
2019-04-01T17:18:08.172Z,69.20
2019-04-01T17:20:41.839Z,70.20
2019-04-01T17:23:15.041Z,70.40
2019-04-01T17:25:48.150Z,69.10
2019-04-01T17:28:21.545Z,69.00
2019-04-01T17:30:54.771Z,69.70
2019-04-01T17:33:27.915Z,70.60
2019-04-01T17:36:01.171Z,69.70
2019-04-01T17:38:35.981Z,70.10
2019-04-01T17:41:08.931Z,69.50
2019-04-01T17:43:42.111Z,69.30
2019-04-01T17:46:14.891Z,69.30
2019-04-01T17:48:47.951Z,69.30
2019-04-01T17:51:20.921Z,70.40
2019-04-01T17:53:54.163Z,70.60
2019-04-01T17:56:27.290Z,69.20
2019-04-01T17:59:01.704Z,69.20
2019-04-01T18:01:35.164Z,69.20
2019-04-01T18:04:07.966Z,68.90
2019-04-01T18:06:41.060Z,68.40
2019-04-01T18:09:14.291Z,68.00
2019-04-01T18:11:47.351Z,67.80
2019-04-01T18:14:20.512Z,69.60
2019-04-01T18:16:53.411Z,68.90
2019-04-01T18:19:26.631Z,69.60
2019-04-01T18:22:00.272Z,69.10
2019-04-01T18:24:33.861Z,69.90
2019-04-01T18:27:06.651Z,68.80
2019-04-01T18:29:39.991Z,69.30
2019-04-01T18:32:12.951Z,68.40
2019-04-01T18:34:47.661Z,67.30
2019-04-01T18:37:21.148Z,67.80
2019-04-01T18:39:57.129Z,67.90
2019-04-01T18:42:31.162Z,67.00
2019-04-01T18:45:05.179Z,67.80
2019-04-01T18:47:39.070Z,69.50
2019-04-01T18:50:14.436Z,69.50
2019-04-01T18:52:48.252Z,69.80
2019-04-01T18:55:21.341Z,68.80
2019-04-01T18:57:56.135Z,69.40
2019-04-01T19:00:29.491Z,70.80
2019-04-01T19:03:02.562Z,69.10
2019-04-01T19:05:35.872Z,68.30
2019-04-01T19:08:08.752Z,68.70
2019-04-01T19:10:42.035Z,69.60
2019-04-01T19:13:15.271Z,69.00
2019-04-01T19:15:49.360Z,69.50
2019-04-01T19:18:23.175Z,68.40
2019-04-01T19:20:59.272Z,68.90
2019-04-01T19:23:31.421Z,69.40
2019-04-01T19:26:05.072Z,70.70
2019-04-01T19:28:37.962Z,70.20
2019-04-01T19:31:12.008Z,69.70
2019-04-01T19:33:45.171Z,71.60
2019-04-01T19:36:18.211Z,71.80
2019-04-01T19:38:51.050Z,70.60
2019-04-01T19:41:24.221Z,69.90
2019-04-01T19:43:57.091Z,70.50
2019-04-01T19:46:30.221Z,70.40
2019-04-01T19:49:05.203Z,72.40
2019-04-01T19:51:38.145Z,68.70
2019-04-01T19:54:11.091Z,68.10
2019-04-01T19:56:44.321Z,68.40
2019-04-01T19:59:17.411Z,69.50
2019-04-01T20:01:50.781Z,70.00
2019-04-01T20:04:23.734Z,69.90
2019-04-01T20:06:56.631Z,70.30
2019-04-01T20:09:29.837Z,70.90
2019-04-01T20:12:02.934Z,70.70
2019-04-01T20:14:36.012Z,71.00
2019-04-01T20:17:09.941Z,72.10
2019-04-01T20:19:43.201Z,72.50
2019-04-01T20:22:16.241Z,72.70
2019-04-01T20:24:49.161Z,73.80
2019-04-01T20:27:22.165Z,73.30
2019-04-01T20:29:55.381Z,75.10
2019-04-01T20:32:28.622Z,73.60
2019-04-01T20:35:01.732Z,74.00
2019-04-01T20:37:35.081Z,74.70
2019-04-01T20:40:07.961Z,74.20
2019-04-01T20:42:41.191Z,74.90
2019-04-01T20:45:14.023Z,75.80
2019-04-01T20:47:50.130Z,75.70
2019-04-01T20:50:21.901Z,76.80
2019-04-01T20:52:54.991Z,76.60
2019-04-01T20:55:28.082Z,77.30
2019-04-01T20:58:01.131Z,78.20
2019-04-01T21:00:34.064Z,77.30
2019-04-01T21:03:06.855Z,77.10
2019-04-01T21:05:39.962Z,78.00
2019-04-01T21:08:12.805Z,78.40
2019-04-01T21:10:45.772Z,79.10
2019-04-01T21:13:18.765Z,79.00
2019-04-01T21:15:51.974Z,79.60
2019-04-01T21:29:15.309Z,79.40
2019-04-01T21:31:48.552Z,80.30
2019-04-01T21:34:21.909Z,79.70
2019-04-01T21:36:54.859Z,80.20
2019-04-01T21:39:28.020Z,80.50
2019-04-01T21:42:01.473Z,80.40
2019-04-01T21:44:34.728Z,80.70
2019-04-01T21:47:07.791Z,80.00
2019-04-01T21:49:40.956Z,79.70
2019-04-01T21:52:13.849Z,80.30
2019-04-01T21:54:47.029Z,80.70
2019-04-01T21:57:20.621Z,80.20
2019-04-01T21:59:54.628Z,80.50
2019-04-01T22:02:35.897Z,80.10
2019-04-01T22:05:02.703Z,81.10
2019-04-01T22:07:36.185Z,81.60
2019-04-01T22:10:09.009Z,82.90
2019-04-01T22:12:42.230Z,83.70
2019-04-01T22:15:15.296Z,84.10
2019-04-01T22:17:48.170Z,84.10
2019-04-01T22:20:21.229Z,83.90
2019-04-01T22:22:54.488Z,83.10
2019-04-01T22:25:27.670Z,83.40
2019-04-01T22:28:00.511Z,83.20
2019-04-01T22:30:33.589Z,83.90
2019-04-01T22:33:06.532Z,83.30
2019-04-01T22:35:41.554Z,83.40
2019-04-01T22:38:24.564Z,82.60
2019-04-01T22:40:49.273Z,83.10
2019-04-01T22:43:22.208Z,83.30
2019-04-01T22:45:54.989Z,82.30
2019-04-01T22:48:28.011Z,82.90
2019-04-01T22:51:01.149Z,82.30
2019-04-01T22:53:34.449Z,82.60
2019-04-01T22:56:07.409Z,83.00
2019-04-01T22:58:40.324Z,82.50
2019-04-01T23:01:13.270Z,83.60
2019-04-01T23:03:46.228Z,83.20
2019-04-01T23:06:19.139Z,82.60
2019-04-01T23:08:52.190Z,83.20
2019-04-01T23:11:25.499Z,82.40
2019-04-01T23:13:59.320Z,84.10
2019-04-01T23:16:32.449Z,84.10
2019-04-01T23:19:05.708Z,84.80
2019-04-01T23:21:38.689Z,84.80
2019-04-01T23:24:11.536Z,83.80
2019-04-01T23:26:44.657Z,84.20
2019-04-01T23:29:18.088Z,83.80
2019-04-01T23:31:51.354Z,83.30
2019-04-01T23:34:24.631Z,83.10
2019-04-01T23:36:57.599Z,83.50
2019-04-01T23:39:30.588Z,83.40
2019-04-01T23:42:03.894Z,83.90
2019-04-01T23:44:37.028Z,83.90
2019-04-01T23:47:09.989Z,84.90
2019-04-01T23:49:42.909Z,85.20
2019-04-01T23:52:15.829Z,84.00
2019-04-01T23:54:49.428Z,84.60
2019-04-01T23:57:22.285Z,82.70
2019-04-01T23:59:55.769Z,84.00
